createdAt,value
2023-02-19T18:59:45.318Z,60.07
2023-02-19T19:03:05.331Z,60.07
2023-02-19T19:05:45.861Z,60.28
2023-02-19T19:12:09.112Z,60.48
2023-02-19T19:14:46.670Z,60.28
2023-02-19T19:17:19.607Z,60.11
2023-02-19T19:20:23.687Z,60.27
2023-02-19T19:23:03.164Z,59.99
2023-02-19T19:25:41.269Z,60.00
2023-02-19T19:28:18.076Z,60.31
2023-02-19T19:32:02.619Z,60.34
2023-02-19T19:34:42.192Z,60.14
2023-02-19T19:37:48.432Z,60.42
2023-02-19T19:41:14.117Z,60.22
2023-02-19T19:43:49.308Z,60.33
2023-02-19T19:46:28.152Z,60.40
2023-02-19T19:49:28.100Z,60.55
2023-02-19T19:55:30.097Z,60.49
2023-02-19T20:05:25.286Z,62.57
2023-02-19T20:08:05.047Z,62.11
2023-02-19T20:10:39.467Z,62.46
2023-02-19T20:13:40.255Z,61.27
2023-02-19T20:16:15.052Z,60.83
2023-02-19T20:18:55.974Z,60.58
2023-02-19T20:24:57.857Z,60.66
2023-02-19T20:27:32.689Z,60.63
2023-02-19T20:30:33.444Z,60.77
2023-02-19T20:33:06.194Z,60.94
2023-02-19T20:36:31.541Z,61.14
2023-02-19T20:39:09.787Z,61.15
2023-02-19T20:41:42.267Z,61.27
2023-02-19T20:44:48.701Z,61.35
2023-02-19T20:47:25.420Z,61.16
2023-02-19T20:49:59.373Z,61.08
2023-02-19T20:52:33.736Z,60.89
2023-02-19T20:55:08.773Z,60.87
2023-02-19T20:57:41.422Z,60.99
2023-02-19T21:00:17.167Z,61.12
2023-02-19T21:02:55.031Z,60.99
2023-02-19T21:05:33.467Z,61.15
2023-02-19T21:08:07.443Z,61.16
2023-02-19T21:11:37.686Z,61.34
2023-02-19T21:14:10.511Z,61.50
2023-02-19T21:16:43.790Z,61.56
2023-02-19T21:19:18.180Z,61.47
2023-02-19T21:21:53.255Z,61.58
2023-02-19T21:24:36.719Z,61.62
2023-02-19T21:27:12.387Z,61.62
2023-02-19T21:29:50.633Z,61.63
2023-02-19T21:33:16.578Z,61.48
2023-02-19T21:35:54.691Z,61.50
2023-02-19T21:38:51.669Z,61.60
2023-02-19T21:41:50.434Z,61.65
2023-02-19T21:44:47.783Z,61.75
2023-02-19T21:47:28.166Z,61.86
2023-02-19T21:50:27.048Z,61.97
2023-02-19T21:56:27.343Z,62.29
2023-02-19T21:59:04.653Z,62.25
2023-02-19T22:02:07.184Z,62.46
2023-02-19T22:04:42.436Z,62.38
2023-02-19T22:07:17.816Z,62.47
2023-02-19T22:09:52.806Z,62.55
2023-02-19T22:12:29.453Z,62.60
2023-02-19T22:15:02.678Z,62.53
2023-02-19T22:17:43.453Z,62.70
2023-02-19T22:21:04.527Z,62.67
2023-02-19T22:23:42.438Z,62.77
2023-02-19T22:26:22.823Z,62.85
2023-02-19T22:29:20.412Z,62.89
2023-02-19T22:31:56.777Z,63.04
2023-02-19T22:35:19.288Z,63.14
2023-02-19T22:37:51.523Z,63.12
2023-02-19T22:40:32.300Z,63.14
2023-02-19T22:43:58.619Z,63.13
2023-02-19T22:46:54.977Z,63.18
2023-02-19T22:49:28.768Z,63.09
2023-02-19T22:55:07.772Z,63.36
2023-02-19T22:58:29.448Z,63.43
2023-02-19T23:01:08.711Z,63.56
2023-02-19T23:07:15.121Z,63.71
2023-02-19T23:10:22.604Z,63.83
2023-02-19T23:13:05.496Z,63.98
2023-02-19T23:15:42.083Z,63.90
2023-02-19T23:18:19.764Z,63.87
2023-02-19T23:21:16.216Z,63.98
2023-02-19T23:24:16.071Z,63.95
2023-02-19T23:27:37.676Z,64.07
2023-02-19T23:30:12.830Z,64.09
2023-02-19T23:32:46.844Z,64.14
2023-02-19T23:36:10.284Z,64.16
2023-02-19T23:39:33.270Z,63.92
2023-02-19T23:45:18.136Z,63.71
2023-02-19T23:47:53.527Z,63.89
2023-02-19T23:50:28.238Z,63.68
2023-02-19T23:53:30.385Z,63.66
2023-02-19T23:56:06.057Z,63.72
2023-02-19T23:59:56.752Z,63.54
